createdAt,value
2024-02-13T00:01:50.811Z,99241.09
2024-02-13T00:04:18.387Z,99238.72
2024-02-13T00:06:45.062Z,99244.44
2024-02-13T00:09:11.635Z,99246.38
2024-02-13T00:11:38.370Z,99246.44
2024-02-13T00:14:05.097Z,99245.38
2024-02-13T00:16:31.725Z,99256.34
2024-02-13T00:18:58.402Z,99248.78
2024-02-13T00:21:25.047Z,99257.78
2024-02-13T00:23:51.681Z,99259.59
2024-02-13T00:26:18.368Z,99261.59
2024-02-13T00:28:45.054Z,99265.59
2024-02-13T00:31:11.743Z,99271.28
2024-02-13T00:33:38.380Z,99270.13
2024-02-13T00:36:05.367Z,99275.72
2024-02-13T00:38:32.017Z,99279.91
2024-02-13T00:40:58.686Z,99280.00
2024-02-13T00:43:28.042Z,99286.47
2024-02-13T00:45:54.751Z,99289.09
2024-02-13T00:48:21.457Z,99284.25
2024-02-13T00:50:48.450Z,99293.47
2024-02-13T00:53:15.197Z,99295.34
2024-02-13T00:55:41.810Z,99297.75
2024-02-13T00:58:08.475Z,99298.97
2024-02-13T01:00:35.256Z,99293.47
2024-02-13T01:03:01.884Z,99301.53
2024-02-13T01:05:29.282Z,99295.66
2024-02-13T01:07:55.943Z,99292.22
2024-02-13T01:10:22.575Z,99296.44
2024-02-13T01:12:49.298Z,99292.97
2024-02-13T01:15:15.894Z,99295.59
2024-02-13T01:17:42.694Z,99304.34
2024-02-13T01:20:10.462Z,99310.50
2024-02-13T01:22:37.161Z,99310.22
2024-02-13T01:25:04.216Z,99319.03
2024-02-13T01:27:30.825Z,99317.94
2024-02-13T01:29:57.738Z,99316.41
2024-02-13T01:32:24.762Z,99311.31
2024-02-13T01:34:51.991Z,99312.13
2024-02-13T01:37:18.817Z,99314.78
2024-02-13T01:39:45.601Z,99312.34
2024-02-13T01:42:12.596Z,99316.63
2024-02-13T01:44:39.222Z,99330.63
2024-02-13T01:47:05.933Z,99333.09
2024-02-13T01:49:33.053Z,99328.72
2024-02-13T01:52:01.573Z,99334.22
2024-02-13T01:54:28.639Z,99331.25
2024-02-13T01:56:55.838Z,99329.63
2024-02-13T01:59:23.072Z,99337.72
2024-02-13T02:01:50.307Z,99340.44
2024-02-13T02:04:17.276Z,99342.97
2024-02-13T02:06:44.292Z,99339.44
2024-02-13T02:09:11.035Z,99342.84
2024-02-13T02:11:37.967Z,99344.53
2024-02-13T02:14:05.879Z,99339.53
2024-02-13T02:16:32.472Z,99341.19
2024-02-13T02:18:59.338Z,99342.53
2024-02-13T02:21:25.984Z,99348.19
2024-02-13T02:23:52.784Z,99344.78
2024-02-13T02:26:19.463Z,99345.97
2024-02-13T02:28:46.106Z,99348.38
2024-02-13T02:31:12.730Z,99346.59
2024-02-13T02:33:39.372Z,99346.50
2024-02-13T02:36:06.136Z,99349.00
2024-02-13T02:38:32.880Z,99355.91
2024-02-13T02:40:59.497Z,99356.88
2024-02-13T02:43:26.156Z,99359.91
2024-02-13T02:45:52.757Z,99357.50
2024-02-13T02:48:20.005Z,99353.81
2024-02-13T02:50:46.795Z,99358.78
2024-02-13T02:53:13.444Z,99366.78
2024-02-13T02:55:40.063Z,99362.59
2024-02-13T02:58:06.834Z,99365.41
2024-02-13T03:00:33.416Z,99372.94
2024-02-13T03:03:00.110Z,99369.63
2024-02-13T03:05:26.903Z,99379.91
2024-02-13T03:07:53.554Z,99379.13
2024-02-13T03:10:20.223Z,99379.06
2024-02-13T03:12:46.863Z,99390.25
2024-02-13T03:15:13.745Z,99391.06
2024-02-13T03:17:40.610Z,99388.25
2024-02-13T03:20:07.874Z,99388.19
2024-02-13T03:22:34.476Z,99394.28
2024-02-13T03:25:04.240Z,99398.44
2024-02-13T03:27:31.909Z,99401.13
2024-02-13T03:29:58.752Z,99404.63
2024-02-13T03:32:25.709Z,99404.88
2024-02-13T03:34:52.425Z,99414.19
2024-02-13T03:37:19.092Z,99415.38
2024-02-13T03:39:45.687Z,99417.75
2024-02-13T03:42:12.544Z,99417.31
2024-02-13T03:44:39.211Z,99424.53
2024-02-13T03:47:05.887Z,99433.31
2024-02-13T03:49:33.219Z,99435.22
2024-02-13T03:52:00.542Z,99429.91
2024-02-13T03:54:27.132Z,99434.19
2024-02-13T03:56:53.776Z,99449.84
2024-02-13T03:59:20.516Z,99442.09
2024-02-13T04:01:47.247Z,99444.50
2024-02-13T04:04:13.886Z,99443.75
2024-02-13T04:06:40.601Z,99454.34
2024-02-13T04:09:07.255Z,99462.84
2024-02-13T04:11:34.559Z,99455.03
2024-02-13T04:14:01.154Z,99461.91
2024-02-13T04:16:27.935Z,99466.50
2024-02-13T04:18:54.806Z,99473.34
2024-02-13T04:21:21.751Z,99478.59
2024-02-13T04:23:49.997Z,99470.69
2024-02-13T04:26:25.572Z,99479.00
2024-02-13T04:29:02.338Z,99477.72
2024-02-13T04:31:29.121Z,99489.75
2024-02-13T04:33:55.885Z,99485.38
2024-02-13T04:36:22.679Z,99486.03
2024-02-13T04:38:49.444Z,99488.72
2024-02-13T04:41:17.182Z,99486.25
2024-02-13T04:43:43.802Z,99483.53
2024-02-13T04:46:10.994Z,99485.50
2024-02-13T04:48:37.752Z,99488.31
2024-02-13T04:51:04.814Z,99493.50
2024-02-13T04:53:31.934Z,99497.91
2024-02-13T04:55:59.082Z,99494.91
2024-02-13T04:58:31.068Z,99502.72
2024-02-13T05:00:57.798Z,99502.06
2024-02-13T05:03:24.451Z,99504.56
2024-02-13T05:05:51.241Z,99513.31
2024-02-13T05:08:18.548Z,99512.63
2024-02-13T05:10:45.160Z,99518.63
2024-02-13T05:13:11.772Z,99521.00
2024-02-13T05:15:38.388Z,99517.22
2024-02-13T05:18:05.623Z,99518.75
2024-02-13T05:20:32.523Z,99529.03
2024-02-13T05:22:59.217Z,99528.91
2024-02-13T05:25:26.204Z,99539.50
2024-02-13T05:27:52.822Z,99545.44
2024-02-13T05:30:19.520Z,99552.00
2024-02-13T05:32:46.257Z,99549.44
2024-02-13T05:35:13.173Z,99558.84
2024-02-13T05:37:39.841Z,99559.78
2024-02-13T05:40:09.638Z,99559.88
2024-02-13T05:42:36.467Z,99569.53
2024-02-13T05:45:03.140Z,99570.34
2024-02-13T05:47:29.849Z,99577.31
2024-02-13T05:49:56.533Z,99579.25
2024-02-13T05:52:23.114Z,99581.69
2024-02-13T05:54:49.738Z,99587.03
2024-02-13T05:57:16.540Z,99595.84
2024-02-13T05:59:43.216Z,99602.69
2024-02-13T06:02:09.851Z,99608.13
2024-02-13T06:04:36.482Z,99609.94
2024-02-13T06:07:03.392Z,99612.59
2024-02-13T06:09:30.155Z,99619.50
2024-02-13T06:11:56.863Z,99627.44
2024-02-13T06:14:24.073Z,99628.22
2024-02-13T06:16:50.711Z,99635.03
2024-02-13T06:19:17.312Z,99638.47
2024-02-13T06:21:43.921Z,99643.72
2024-02-13T06:24:10.541Z,99641.16
2024-02-13T06:26:37.423Z,99643.72
2024-02-13T06:29:04.816Z,99657.44
2024-02-13T06:31:34.699Z,99659.16
2024-02-13T06:34:01.666Z,99663.47
2024-02-13T06:36:28.370Z,99661.75
2024-02-13T06:38:55.084Z,99671.25
2024-02-13T06:41:21.772Z,99677.19
2024-02-13T06:43:48.435Z,99676.22
2024-02-13T06:46:15.063Z,99673.75
2024-02-13T06:48:41.900Z,99676.47
2024-02-13T06:51:12.562Z,99684.25
2024-02-13T06:53:39.717Z,99692.84
2024-02-13T06:56:06.859Z,99683.41
2024-02-13T06:58:33.741Z,99686.00
2024-02-13T07:01:00.413Z,99694.63
2024-02-13T07:03:27.134Z,99697.22
2024-02-13T07:05:56.965Z,99691.09
2024-02-13T07:08:24.320Z,99696.19
2024-02-13T07:10:51.245Z,99704.81
2024-02-13T07:13:19.883Z,99697.78
2024-02-13T07:15:46.777Z,99697.72
2024-02-13T07:18:13.698Z,99699.38
2024-02-13T07:20:40.497Z,99695.59
2024-02-13T07:23:07.247Z,99705.84
2024-02-13T07:25:33.943Z,99699.72
2024-02-13T07:28:00.594Z,99700.66
2024-02-13T07:30:27.560Z,99705.72
2024-02-13T07:32:55.611Z,99709.97
2024-02-13T07:35:22.304Z,99718.59
2024-02-13T07:37:49.478Z,99715.94
2024-02-13T07:40:16.234Z,99724.44
2024-02-13T07:42:42.883Z,99715.78
2024-02-13T07:45:09.605Z,99726.25
2024-02-13T07:47:36.455Z,99723.75
2024-02-13T07:50:03.254Z,99726.22
2024-02-13T07:52:29.835Z,99726.09
2024-02-13T07:54:56.405Z,99733.84
2024-02-13T07:57:23.034Z,99734.63
2024-02-13T07:59:53.141Z,99735.59
2024-02-13T08:02:19.905Z,99739.78
2024-02-13T08:04:46.542Z,99745.03
2024-02-13T08:07:13.169Z,99752.06
2024-02-13T08:09:39.852Z,99752.16
2024-02-13T08:12:07.233Z,99754.59
2024-02-13T08:14:34.972Z,99756.16
2024-02-13T08:17:02.487Z,99759.91
2024-02-13T08:19:29.123Z,99755.44
2024-02-13T08:21:55.799Z,99758.84
2024-02-13T08:24:22.703Z,99762.28
2024-02-13T08:26:49.541Z,99763.00
2024-02-13T08:29:16.463Z,99776.03
2024-02-13T08:31:43.103Z,99768.22
2024-02-13T08:34:09.993Z,99780.34
2024-02-13T08:36:36.874Z,99776.75
2024-02-13T08:39:03.709Z,99780.06
2024-02-13T08:41:30.423Z,99778.25
2024-02-13T08:43:57.169Z,99780.59
2024-02-13T08:46:23.926Z,99785.94
2024-02-13T08:48:51.131Z,99782.03
2024-02-13T08:51:18.741Z,99787.53
2024-02-13T08:53:46.457Z,99791.50
2024-02-13T08:56:13.746Z,99786.19
2024-02-13T08:58:40.710Z,99801.72
2024-02-13T09:01:07.437Z,99796.16
2024-02-13T09:03:34.049Z,99797.03
2024-02-13T09:06:01.168Z,99804.75
2024-02-13T09:08:27.862Z,99802.78
2024-02-13T09:10:54.473Z,99817.56
2024-02-13T09:13:21.039Z,99811.22
2024-02-13T09:15:47.590Z,99817.13
2024-02-13T09:18:14.402Z,99817.19
2024-02-13T09:20:41.128Z,99810.91
2024-02-13T09:23:07.756Z,99822.22
2024-02-13T09:25:34.430Z,99833.41
2024-02-13T09:28:01.046Z,99827.75
2024-02-13T09:30:27.708Z,99826.97
2024-02-13T09:32:54.601Z,99829.13
2024-02-13T09:35:21.439Z,99830.88
2024-02-13T09:37:48.145Z,99827.22
2024-02-13T09:40:14.865Z,99835.13
2024-02-13T09:42:45.674Z,99835.22
2024-02-13T09:45:14.660Z,99837.13
2024-02-13T09:47:42.165Z,99837.94
2024-02-13T09:50:11.730Z,99841.00
2024-02-13T09:52:46.814Z,99852.31
2024-02-13T09:55:15.717Z,99851.63
2024-02-13T09:57:43.032Z,99851.66
2024-02-13T10:00:10.145Z,99852.97
2024-02-13T10:02:40.464Z,99861.41
2024-02-13T10:05:08.666Z,99853.91
2024-02-13T10:07:36.588Z,99854.72
2024-02-13T10:10:12.785Z,99864.00
2024-02-13T10:12:49.858Z,99858.69
2024-02-13T10:15:17.240Z,99858.75
2024-02-13T10:17:44.007Z,99863.19
2024-02-13T10:20:14.445Z,99856.59
2024-02-13T10:22:59.300Z,99850.69
2024-02-13T10:25:26.110Z,99862.34
2024-02-13T10:27:53.260Z,99845.94
2024-02-13T10:30:27.836Z,99850.41
2024-02-13T10:32:55.428Z,99855.72
2024-02-13T10:35:22.659Z,99856.75
2024-02-13T10:37:50.384Z,99842.41
2024-02-13T10:40:24.439Z,99856.06
2024-02-13T10:42:51.629Z,99861.34
2024-02-13T10:45:18.596Z,99852.09
2024-02-13T10:47:53.239Z,99850.75
2024-02-13T10:50:20.090Z,99855.13
2024-02-13T10:52:51.463Z,99855.31
2024-02-13T10:55:18.782Z,99859.34
2024-02-13T10:57:47.390Z,99850.06
2024-02-13T11:00:14.341Z,99858.00
2024-02-13T11:02:41.905Z,99854.47
2024-02-13T11:05:09.088Z,99855.81
2024-02-13T11:07:38.859Z,99864.25
2024-02-13T11:10:08.322Z,99862.75
2024-02-13T11:12:36.337Z,99862.97
2024-02-13T11:15:09.680Z,99858.69
2024-02-13T11:17:47.244Z,99865.56
2024-02-13T11:20:21.217Z,99863.66
2024-02-13T11:22:58.765Z,99872.03
2024-02-13T11:25:30.486Z,99861.56
2024-02-13T11:28:01.485Z,99866.41
2024-02-13T11:30:29.151Z,99864.28
2024-02-13T11:32:59.992Z,99865.84
2024-02-13T11:35:31.754Z,99857.94
2024-02-13T11:37:59.144Z,99869.22
2024-02-13T11:40:26.494Z,99864.00
2024-02-13T11:42:53.587Z,99868.38
2024-02-13T11:45:22.454Z,99861.59
2024-02-13T11:47:49.768Z,99862.03
2024-02-13T11:50:17.582Z,99857.00
2024-02-13T11:52:44.312Z,99862.16
2024-02-13T11:55:11.347Z,99868.47
2024-02-13T11:57:37.962Z,99860.31
2024-02-13T12:00:05.533Z,99863.09
2024-02-13T12:02:32.358Z,99864.94
2024-02-13T12:04:58.983Z,99867.38
2024-02-13T12:07:26.014Z,99864.16
2024-02-13T12:09:52.833Z,99866.97
2024-02-13T12:12:20.272Z,99865.03
2024-02-13T12:14:52.918Z,99869.38
2024-02-13T12:17:19.625Z,99874.88
2024-02-13T12:19:47.621Z,99872.91
2024-02-13T12:22:15.329Z,99869.56
2024-02-13T12:24:42.110Z,99865.84
2024-02-13T12:27:08.916Z,99876.88
2024-02-13T12:29:35.671Z,99873.13
2024-02-13T12:32:05.994Z,99872.75
2024-02-13T12:34:35.798Z,99862.44
2024-02-13T12:37:02.559Z,99871.72
2024-02-13T12:39:29.172Z,99869.78
2024-02-13T12:41:55.894Z,99872.97
2024-02-13T12:44:22.619Z,99875.72
2024-02-13T12:46:49.446Z,99875.81
2024-02-13T12:49:16.189Z,99887.09
2024-02-13T12:51:43.375Z,99877.72
2024-02-13T12:54:10.036Z,99872.16
2024-02-13T12:56:36.692Z,99882.63
2024-02-13T12:59:03.513Z,99895.94
2024-02-13T13:01:30.914Z,99889.84
2024-02-13T13:03:57.671Z,99885.53
2024-02-13T13:06:24.395Z,99885.53
2024-02-13T13:08:57.115Z,99895.56
2024-02-13T13:11:24.753Z,99899.81
2024-02-13T13:13:51.357Z,99899.56
2024-02-13T13:16:18.133Z,99909.13
2024-02-13T13:18:44.809Z,99923.31
2024-02-13T13:21:11.622Z,99918.16
2024-02-13T13:23:38.453Z,99924.03
2024-02-13T13:26:05.132Z,99928.94
2024-02-13T13:28:31.824Z,99927.69
2024-02-13T13:30:58.554Z,99931.22
2024-02-13T13:33:28.485Z,99939.19
2024-02-13T13:35:55.247Z,99927.88
2024-02-13T13:38:21.893Z,99926.56
2024-02-13T13:40:49.150Z,99945.25
2024-02-13T13:43:15.784Z,99938.63
2024-02-13T13:45:56.975Z,99943.47
2024-02-13T13:48:25.739Z,99953.06
2024-02-13T13:50:53.597Z,99952.97
2024-02-13T13:53:20.861Z,99940.84
2024-02-13T13:55:47.545Z,99951.69
2024-02-13T13:58:14.207Z,99947.38
2024-02-13T14:00:41.757Z,99948.63
2024-02-13T14:03:08.378Z,99961.88
2024-02-13T14:05:35.341Z,99962.81
2024-02-13T14:08:05.866Z,99958.81
2024-02-13T14:10:32.605Z,99965.66
2024-02-13T14:12:59.831Z,99959.03
2024-02-13T14:15:26.495Z,99954.41
2024-02-13T14:17:53.171Z,99957.59
2024-02-13T14:20:19.918Z,99962.75
2024-02-13T14:22:46.572Z,99962.56
2024-02-13T14:25:13.190Z,99968.94
2024-02-13T14:27:39.837Z,99965.94
2024-02-13T14:30:06.841Z,99967.31
2024-02-13T14:32:33.730Z,99976.38
2024-02-13T14:35:00.740Z,99970.50
2024-02-13T14:37:27.657Z,99972.59
2024-02-13T14:39:54.285Z,99970.25
2024-02-13T14:42:20.942Z,99978.59
2024-02-13T14:44:47.609Z,99976.97
2024-02-13T14:47:14.297Z,99994.38
2024-02-13T14:49:40.998Z,99988.34
2024-02-13T14:52:08.010Z,99993.19
2024-02-13T14:54:34.727Z,99995.81
2024-02-13T14:57:01.705Z,99982.53
2024-02-13T14:59:28.585Z,99995.84
2024-02-13T15:01:56.044Z,100000.47
2024-02-13T15:04:23.167Z,100010.97
2024-02-13T15:06:49.964Z,99999.47
2024-02-13T15:09:17.391Z,100009.56
2024-02-13T15:11:44.421Z,100011.09
2024-02-13T15:14:11.012Z,100011.34
2024-02-13T15:16:38.055Z,100023.13
2024-02-13T15:19:04.888Z,100021.78
2024-02-13T15:21:31.722Z,100033.06
2024-02-13T15:23:58.428Z,100033.28
2024-02-13T15:26:25.065Z,100035.91
2024-02-13T15:28:52.139Z,100035.75
2024-02-13T15:31:18.788Z,100044.81
2024-02-13T15:33:45.559Z,100043.78
2024-02-13T15:36:12.525Z,100044.66
2024-02-13T15:38:39.201Z,100062.28
2024-02-13T15:41:05.844Z,100051.94
2024-02-13T15:43:32.519Z,100059.16
2024-02-13T15:45:59.133Z,100072.00
2024-02-13T15:48:25.866Z,100076.75
2024-02-13T15:50:53.575Z,100075.16
2024-02-13T15:53:20.256Z,100078.53
2024-02-13T15:55:46.880Z,100086.22
2024-02-13T15:58:13.422Z,100087.34
2024-02-13T16:00:40.012Z,100084.22
2024-02-13T16:03:07.061Z,100096.91
2024-02-13T16:05:33.738Z,100103.78
2024-02-13T16:08:00.433Z,100102.34
2024-02-13T16:10:27.327Z,100111.22
2024-02-13T16:12:54.223Z,100114.78
2024-02-13T16:15:20.866Z,100123.69
2024-02-13T16:17:47.530Z,100119.38
2024-02-13T16:20:14.188Z,100128.09
2024-02-13T16:22:40.832Z,100134.38
2024-02-13T16:25:07.851Z,100135.59
2024-02-13T16:27:35.366Z,100141.50
2024-02-13T16:30:06.288Z,100153.97
2024-02-13T16:32:39.374Z,100152.22
2024-02-13T16:35:07.451Z,100154.31
2024-02-13T16:37:34.144Z,100152.56
2024-02-13T16:40:01.143Z,100159.88
2024-02-13T16:42:27.833Z,100157.22
2024-02-13T16:44:57.752Z,100164.94
2024-02-13T16:47:24.544Z,100174.63
2024-02-13T16:49:52.092Z,100171.94
2024-02-13T16:52:18.711Z,100179.00
2024-02-13T16:54:45.395Z,100187.09
2024-02-13T16:57:12.081Z,100182.66
2024-02-13T16:59:38.792Z,100188.81
2024-02-13T17:02:05.713Z,100200.16
2024-02-13T17:04:32.358Z,100203.56
2024-02-13T17:06:59.242Z,100203.66
2024-02-13T17:09:26.107Z,100201.91
2024-02-13T17:11:52.769Z,100201.19
2024-02-13T17:14:19.511Z,100204.66
2024-02-13T17:16:46.181Z,100218.53
2024-02-13T17:19:12.991Z,100218.50
2024-02-13T17:21:42.532Z,100220.53
2024-02-13T17:24:09.551Z,100225.78
2024-02-13T17:26:36.443Z,100232.78
2024-02-13T17:29:03.775Z,100227.44
2024-02-13T17:31:30.709Z,100233.78
2024-02-13T17:33:57.623Z,100232.16
2024-02-13T17:36:24.489Z,100240.88
2024-02-13T17:38:51.275Z,100239.06
2024-02-13T17:41:17.977Z,100233.91
2024-02-13T17:43:44.611Z,100239.16
2024-02-13T17:46:11.237Z,100247.91
2024-02-13T17:48:38.074Z,100240.81
2024-02-13T17:51:04.944Z,100247.69
2024-02-13T17:53:31.849Z,100250.53
2024-02-13T17:55:58.464Z,100252.19
2024-02-13T17:58:25.084Z,100260.97
2024-02-13T18:00:51.733Z,100261.03
2024-02-13T18:03:18.428Z,100263.56
2024-02-13T18:05:45.241Z,100262.75
2024-02-13T18:08:11.914Z,100263.75
2024-02-13T18:10:38.509Z,100267.25
2024-02-13T18:13:05.247Z,100276.88
2024-02-13T18:15:31.883Z,100271.59
2024-02-13T18:17:58.674Z,100277.66
2024-02-13T18:20:25.655Z,100282.84
2024-02-13T18:22:52.478Z,100287.28
2024-02-13T18:25:19.115Z,100293.34
2024-02-13T18:27:45.730Z,100299.41
2024-02-13T18:30:12.801Z,100295.16
2024-02-13T18:32:39.488Z,100297.75
2024-02-13T18:35:06.542Z,100296.00
2024-02-13T18:37:33.213Z,100294.34
2024-02-13T18:39:59.874Z,100306.53
2024-02-13T18:42:26.498Z,100306.50
2024-02-13T18:44:53.774Z,100299.56
2024-02-13T18:47:20.466Z,100310.00
2024-02-13T18:49:47.110Z,100313.44
2024-02-13T18:52:13.799Z,100312.63
2024-02-13T18:54:40.360Z,100322.94
2024-02-13T18:57:08.217Z,100318.63
2024-02-13T18:59:35.025Z,100321.28
2024-02-13T19:02:01.709Z,100329.13
2024-02-13T19:04:28.496Z,100334.34
2024-02-13T19:06:55.382Z,100334.44
2024-02-13T19:09:22.382Z,100334.44
2024-02-13T19:11:49.792Z,100336.19
2024-02-13T19:14:16.385Z,100337.06
2024-02-13T19:16:45.849Z,100339.66
2024-02-13T19:19:12.750Z,100345.69
2024-02-13T19:21:43.177Z,100351.84
2024-02-13T19:24:10.210Z,100356.19
2024-02-13T19:26:37.397Z,100360.56
2024-02-13T19:29:04.957Z,100357.91
2024-02-13T19:31:31.729Z,100359.63
2024-02-13T19:33:58.571Z,100362.31
2024-02-13T19:36:29.628Z,100356.25
2024-02-13T19:38:56.219Z,100370.16
2024-02-13T19:41:22.873Z,100372.78
2024-02-13T19:43:49.551Z,100373.63
2024-02-13T19:46:16.270Z,100390.19
2024-02-13T19:48:43.103Z,100391.88
2024-02-13T19:51:09.891Z,100395.41
2024-02-13T19:53:36.657Z,100397.13
2024-02-13T19:56:03.370Z,100397.13
2024-02-13T19:58:29.960Z,100394.56
2024-02-13T20:00:56.960Z,100406.72
2024-02-13T20:03:23.656Z,100405.00
2024-02-13T20:05:50.494Z,100410.13
2024-02-13T20:08:17.123Z,100412.69
2024-02-13T20:10:43.773Z,100422.41
2024-02-13T20:13:10.447Z,100424.13
2024-02-13T20:15:37.059Z,100420.66
2024-02-13T20:18:04.520Z,100419.78
2024-02-13T20:20:31.283Z,100425.00
2024-02-13T20:22:57.938Z,100433.66
2024-02-13T20:25:24.603Z,100433.72
2024-02-13T20:27:51.208Z,100432.81
2024-02-13T20:30:18.026Z,100437.13
2024-02-13T20:32:46.592Z,100436.19
2024-02-13T20:35:13.816Z,100440.66
2024-02-13T20:37:40.546Z,100441.50
2024-02-13T20:40:11.665Z,100451.03
2024-02-13T20:42:44.207Z,100450.91
2024-02-13T20:45:18.049Z,100449.16
2024-02-13T20:47:49.818Z,100445.59
2024-02-13T20:50:16.550Z,100457.78
2024-02-13T20:52:43.179Z,100455.19
2024-02-13T20:55:09.970Z,100450.09
2024-02-13T20:57:36.648Z,100457.09
2024-02-13T21:00:04.147Z,100461.47
2024-02-13T21:02:30.901Z,100462.38
2024-02-13T21:04:57.681Z,100466.75
2024-02-13T21:07:24.292Z,100466.78
2024-02-13T21:09:50.997Z,100471.06
2024-02-13T21:12:17.873Z,100475.47
2024-02-13T21:14:44.511Z,100471.00
2024-02-13T21:17:11.250Z,100468.41
2024-02-13T21:19:37.975Z,100472.81
2024-02-13T21:22:04.724Z,100481.56
2024-02-13T21:24:32.519Z,100487.66
2024-02-13T21:26:59.370Z,100485.03
2024-02-13T21:29:26.086Z,100482.44
2024-02-13T21:31:52.780Z,100481.56
2024-02-13T21:34:19.513Z,100477.19
2024-02-13T21:36:46.264Z,100478.06
2024-02-13T21:39:12.921Z,100482.41
2024-02-13T21:41:39.605Z,100486.78
2024-02-13T21:44:06.276Z,100480.53
2024-02-13T21:46:32.937Z,100480.53
2024-02-13T21:48:59.659Z,100480.56
2024-02-13T21:51:26.439Z,100488.47
2024-02-13T21:53:53.064Z,100485.88
2024-02-13T21:56:20.088Z,100493.72
2024-02-13T21:58:46.909Z,100493.72
2024-02-13T22:01:14.164Z,100496.31
2024-02-13T22:03:41.757Z,100502.44
2024-02-13T22:06:08.813Z,100493.56
2024-02-13T22:08:35.556Z,100494.38
2024-02-13T22:11:02.286Z,100499.50
2024-02-13T22:13:28.861Z,100494.25
2024-02-13T22:15:55.803Z,100499.41
2024-02-13T22:18:25.604Z,100493.41
2024-02-13T22:20:52.940Z,100500.34
2024-02-13T22:23:19.759Z,100507.38
2024-02-13T22:25:46.352Z,100504.78
2024-02-13T22:28:13.012Z,100509.19
2024-02-13T22:30:39.701Z,100518.72
2024-02-13T22:33:06.396Z,100517.00
2024-02-13T22:35:33.073Z,100520.38
2024-02-13T22:37:59.687Z,100524.69
2024-02-13T22:40:26.961Z,100519.50
2024-02-13T22:42:53.681Z,100519.59
2024-02-13T22:45:20.362Z,100527.47
2024-02-13T22:47:59.052Z,100526.66
2024-02-13T22:50:26.203Z,100530.09
2024-02-13T22:52:52.913Z,100532.50
2024-02-13T22:55:19.581Z,100542.03
2024-02-13T22:57:46.224Z,100544.44
2024-02-13T23:00:13.673Z,100548.91
2024-02-13T23:02:40.527Z,100545.13
2024-02-13T23:05:07.534Z,100546.09
2024-02-13T23:07:34.606Z,100543.56
2024-02-13T23:10:01.250Z,100544.06
2024-02-13T23:12:27.997Z,100541.63
2024-02-13T23:14:54.700Z,100538.31
2024-02-13T23:17:21.389Z,100543.59
2024-02-13T23:19:48.117Z,100545.19
2024-02-13T23:22:14.887Z,100547.91
2024-02-13T23:24:41.605Z,100543.53
2024-02-13T23:27:08.414Z,100544.38
2024-02-13T23:29:35.088Z,100546.97
2024-02-13T23:32:02.070Z,100550.38
2024-02-13T23:34:28.824Z,100542.63
2024-02-13T23:36:55.505Z,100541.75
2024-02-13T23:39:22.238Z,100541.06
2024-02-13T23:41:48.932Z,100539.41
2024-02-13T23:44:15.635Z,100544.66
2024-02-13T23:46:42.823Z,100547.25
2024-02-13T23:49:09.623Z,100550.84
2024-02-13T23:51:36.404Z,100556.13
2024-02-13T23:54:03.100Z,100563.03
2024-02-13T23:56:29.981Z,100565.75
2024-02-13T23:58:56.652Z,100561.34
